sensor_id;sensor_type;location;lat;lon;timestamp;temperature;humidity
15083;DHT22;7640;53.116;6.878;2022-09-19T00:01:57;12.10;99.90
15083;DHT22;7640;53.116;6.878;2022-09-19T00:04:27;12.10;99.90
15083;DHT22;7640;53.116;6.878;2022-09-19T00:06:57;12.10;99.90
15083;DHT22;7640;53.116;6.878;2022-09-19T00:09:29;12.10;99.90
15083;DHT22;7640;53.116;6.878;2022-09-19T00:11:59;12.10;99.90
15083;DHT22;7640;53.116;6.878;2022-09-19T00:14:29;12.20;99.90
15083;DHT22;7640;53.116;6.878;2022-09-19T00:16:59;12.20;99.90
15083;DHT22;7640;53.116;6.878;2022-09-19T00:19:28;12.20;99.90
15083;DHT22;7640;53.116;6.878;2022-09-19T00:21:58;12.20;99.90
15083;DHT22;7640;53.116;6.878;2022-09-19T00:24:29;12.20;99.90
15083;DHT22;7640;53.116;6.878;2022-09-19T00:27:14;12.20;99.90
15083;DHT22;7640;53.116;6.878;2022-09-19T00:29:44;12.30;99.90
15083;DHT22;7640;53.116;6.878;2022-09-19T00:32:13;12.30;99.90
15083;DHT22;7640;53.116;6.878;2022-09-19T00:34:44;12.20;99.90
15083;DHT22;7640;53.116;6.878;2022-09-19T00:37:16;12.30;99.90
15083;DHT22;7640;53.116;6.878;2022-09-19T00:39:46;12.30;99.90
15083;DHT22;7640;53.116;6.878;2022-09-19T00:42:16;12.30;99.90
15083;DHT22;7640;53.116;6.878;2022-09-19T00:45:03;12.60;99.90
15083;DHT22;7640;53.116;6.878;2022-09-19T00:47:37;12.30;99.90
15083;DHT22;7640;53.116;6.878;2022-09-19T00:50:12;12.30;99.90
15083;DHT22;7640;53.116;6.878;2022-09-19T00:52:46;12.30;99.90
15083;DHT22;7640;53.116;6.878;2022-09-19T00:55:17;12.30;99.90
15083;DHT22;7640;53.116;6.878;2022-09-19T00:58:06;12.30;99.90
15083;DHT22;7640;53.116;6.878;2022-09-19T01:00:38;12.40;99.90
15083;DHT22;7640;53.116;6.878;2022-09-19T01:03:06;12.40;99.90
15083;DHT22;7640;53.116;6.878;2022-09-19T01:05:47;12.40;99.90
15083;DHT22;7640;53.116;6.878;2022-09-19T01:08:46;12.40;99.90
15083;DHT22;7640;53.116;6.878;2022-09-19T01:11:38;12.40;99.90
15083;DHT22;7640;53.116;6.878;2022-09-19T01:14:25;12.50;99.90
15083;DHT22;7640;53.116;6.878;2022-09-19T01:17:10;12.50;99.90
15083;DHT22;7640;53.116;6.878;2022-09-19T01:20:11;12.50;99.90
15083;DHT22;7640;53.116;6.878;2022-09-19T01:23:09;12.50;99.90
15083;DHT22;7640;53.116;6.878;2022-09-19T01:25:52;12.60;99.90
15083;DHT22;7640;53.116;6.878;2022-09-19T01:28:25;12.60;99.90
15083;DHT22;7640;53.116;6.878;2022-09-19T01:30:58;12.60;99.90
15083;DHT22;7640;53.116;6.878;2022-09-19T01:33:51;12.60;99.90
15083;DHT22;7640;53.116;6.878;2022-09-19T01:36:32;13.00;99.90
15083;DHT22;7640;53.116;6.878;2022-09-19T01:39:03;12.90;99.90
15083;DHT22;7640;53.116;6.878;2022-09-19T01:41:33;12.80;99.90
15083;DHT22;7640;53.116;6.878;2022-09-19T01:44:04;12.80;99.90
15083;DHT22;7640;53.116;6.878;2022-09-19T01:46:50;12.40;99.90
15083;DHT22;7640;53.116;6.878;2022-09-19T01:49:31;12.70;99.90
15083;DHT22;7640;53.116;6.878;2022-09-19T01:52:14;12.70;99.90
15083;DHT22;7640;53.116;6.878;2022-09-19T01:54:55;12.70;99.90
15083;DHT22;7640;53.116;6.878;2022-09-19T01:57:33;12.70;99.90
15083;DHT22;7640;53.116;6.878;2022-09-19T02:00:08;12.70;99.90
15083;DHT22;7640;53.116;6.878;2022-09-19T02:02:45;12.70;99.90
15083;DHT22;7640;53.116;6.878;2022-09-19T02:05:26;12.70;99.90
15083;DHT22;7640;53.116;6.878;2022-09-19T02:08:07;12.70;99.90
15083;DHT22;7640;53.116;6.878;2022-09-19T02:10:43;12.70;99.90
15083;DHT22;7640;53.116;6.878;2022-09-19T02:13:16;12.70;99.90
15083;DHT22;7640;53.116;6.878;2022-09-19T02:15:50;12.70;99.90
15083;DHT22;7640;53.116;6.878;2022-09-19T02:18:25;12.70;99.90
15083;DHT22;7640;53.116;6.878;2022-09-19T02:21:01;12.70;99.90
15083;DHT22;7640;53.116;6.878;2022-09-19T02:23:33;12.70;99.90
15083;DHT22;7640;53.116;6.878;2022-09-19T02:26:06;12.70;99.90
15083;DHT22;7640;53.116;6.878;2022-09-19T02:28:38;12.70;99.90
15083;DHT22;7640;53.116;6.878;2022-09-19T02:31:10;12.70;99.90
15083;DHT22;7640;53.116;6.878;2022-09-19T02:33:41;12.70;99.90
15083;DHT22;7640;53.116;6.878;2022-09-19T02:36:16;12.70;99.90
15083;DHT22;7640;53.116;6.878;2022-09-19T02:38:56;12.70;99.90
15083;DHT22;7640;53.116;6.878;2022-09-19T02:41:30;12.70;99.90
15083;DHT22;7640;53.116;6.878;2022-09-19T02:44:09;12.70;99.90
15083;DHT22;7640;53.116;6.878;2022-09-19T02:46:50;12.70;99.90
15083;DHT22;7640;53.116;6.878;2022-09-19T02:49:29;12.70;99.90
15083;DHT22;7640;53.116;6.878;2022-09-19T02:52:06;12.70;99.90
15083;DHT22;7640;53.116;6.878;2022-09-19T02:54:38;12.70;99.90
15083;DHT22;7640;53.116;6.878;2022-09-19T02:57:11;12.80;99.90
15083;DHT22;7640;53.116;6.878;2022-09-19T02:59:43;12.70;99.90
15083;DHT22;7640;53.116;6.878;2022-09-19T03:02:19;12.80;99.90
15083;DHT22;7640;53.116;6.878;2022-09-19T03:04:52;12.80;99.90
15083;DHT22;7640;53.116;6.878;2022-09-19T03:07:24;12.80;99.90
15083;DHT22;7640;53.116;6.878;2022-09-19T03:10:01;12.80;99.90
15083;DHT22;7640;53.116;6.878;2022-09-19T03:12:35;12.80;99.90
15083;DHT22;7640;53.116;6.878;2022-09-19T03:15:07;12.80;99.90
15083;DHT22;7640;53.116;6.878;2022-09-19T03:17:43;12.70;99.90
15083;DHT22;7640;53.116;6.878;2022-09-19T03:20:18;12.70;99.90
15083;DHT22;7640;53.116;6.878;2022-09-19T03:22:46;12.70;99.90
15083;DHT22;7640;53.116;6.878;2022-09-19T03:25:16;12.70;99.90
15083;DHT22;7640;53.116;6.878;2022-09-19T03:27:44;12.70;99.90
15083;DHT22;7640;53.116;6.878;2022-09-19T03:30:13;12.60;99.90
15083;DHT22;7640;53.116;6.878;2022-09-19T03:32:47;12.60;99.90
15083;DHT22;7640;53.116;6.878;2022-09-19T03:35:16;12.60;99.90
15083;DHT22;7640;53.116;6.878;2022-09-19T03:37:45;12.60;99.90
15083;DHT22;7640;53.116;6.878;2022-09-19T03:40:13;12.60;99.90
15083;DHT22;7640;53.116;6.878;2022-09-19T03:42:43;12.60;99.90
15083;DHT22;7640;53.116;6.878;2022-09-19T03:45:12;12.50;99.90
15083;DHT22;7640;53.116;6.878;2022-09-19T03:47:40;12.50;99.90
15083;DHT22;7640;53.116;6.878;2022-09-19T03:50:10;12.50;99.90
15083;DHT22;7640;53.116;6.878;2022-09-19T03:52:38;12.50;99.90
15083;DHT22;7640;53.116;6.878;2022-09-19T03:55:08;12.60;99.90
15083;DHT22;7640;53.116;6.878;2022-09-19T03:57:41;12.60;99.90
15083;DHT22;7640;53.116;6.878;2022-09-19T04:00:10;12.60;99.90
15083;DHT22;7640;53.116;6.878;2022-09-19T04:02:38;12.60;99.90
15083;DHT22;7640;53.116;6.878;2022-09-19T04:05:07;12.70;99.90
15083;DHT22;7640;53.116;6.878;2022-09-19T04:07:40;12.70;99.90
15083;DHT22;7640;53.116;6.878;2022-09-19T04:10:08;12.70;99.90
15083;DHT22;7640;53.116;6.878;2022-09-19T04:12:36;12.70;99.90
15083;DHT22;7640;53.116;6.878;2022-09-19T04:15:05;12.70;99.90
15083;DHT22;7640;53.116;6.878;2022-09-19T04:17:34;12.70;99.90
15083;DHT22;7640;53.116;6.878;2022-09-19T04:20:09;12.80;99.90
15083;DHT22;7640;53.116;6.878;2022-09-19T04:22:38;12.70;99.90
15083;DHT22;7640;53.116;6.878;2022-09-19T04:25:06;12.70;99.90
15083;DHT22;7640;53.116;6.878;2022-09-19T04:27:40;12.70;99.90
15083;DHT22;7640;53.116;6.878;2022-09-19T04:30:12;12.70;99.90
15083;DHT22;7640;53.116;6.878;2022-09-19T04:32:41;12.70;99.90
15083;DHT22;7640;53.116;6.878;2022-09-19T04:35:11;12.70;99.90
15083;DHT22;7640;53.116;6.878;2022-09-19T04:37:40;12.80;99.90
15083;DHT22;7640;53.116;6.878;2022-09-19T04:40:08;12.80;99.90
15083;DHT22;7640;53.116;6.878;2022-09-19T04:42:36;12.80;99.90
15083;DHT22;7640;53.116;6.878;2022-09-19T04:45:05;12.80;99.90
15083;DHT22;7640;53.116;6.878;2022-09-19T04:47:34;12.80;99.90
15083;DHT22;7640;53.116;6.878;2022-09-19T04:50:05;12.80;99.90
15083;DHT22;7640;53.116;6.878;2022-09-19T04:52:36;12.80;99.90
15083;DHT22;7640;53.116;6.878;2022-09-19T04:55:07;12.80;99.90
15083;DHT22;7640;53.116;6.878;2022-09-19T04:57:36;12.80;99.90
15083;DHT22;7640;53.116;6.878;2022-09-19T05:00:05;12.80;99.90
15083;DHT22;7640;53.116;6.878;2022-09-19T05:02:34;12.90;99.90
15083;DHT22;7640;53.116;6.878;2022-09-19T05:05:04;12.90;99.90
15083;DHT22;7640;53.116;6.878;2022-09-19T05:07:33;12.90;99.90
15083;DHT22;7640;53.116;6.878;2022-09-19T05:10:03;12.90;99.90
15083;DHT22;7640;53.116;6.878;2022-09-19T05:12:32;12.90;99.90
15083;DHT22;7640;53.116;6.878;2022-09-19T05:15:01;12.90;99.90
15083;DHT22;7640;53.116;6.878;2022-09-19T05:17:30;12.90;99.90
15083;DHT22;7640;53.116;6.878;2022-09-19T05:19:59;12.90;99.90
15083;DHT22;7640;53.116;6.878;2022-09-19T05:22:28;12.90;99.90
15083;DHT22;7640;53.116;6.878;2022-09-19T05:24:58;12.90;99.90
15083;DHT22;7640;53.116;6.878;2022-09-19T05:27:31;12.90;99.90
15083;DHT22;7640;53.116;6.878;2022-09-19T05:29:59;12.80;99.90
15083;DHT22;7640;53.116;6.878;2022-09-19T05:32:28;12.80;99.90
15083;DHT22;7640;53.116;6.878;2022-09-19T05:34:56;12.80;99.90
15083;DHT22;7640;53.116;6.878;2022-09-19T05:37:27;12.80;99.90
15083;DHT22;7640;53.116;6.878;2022-09-19T05:39:58;12.80;99.90
15083;DHT22;7640;53.116;6.878;2022-09-19T05:42:26;12.80;99.90
15083;DHT22;7640;53.116;6.878;2022-09-19T05:44:55;12.80;99.90
15083;DHT22;7640;53.116;6.878;2022-09-19T05:47:24;12.80;99.90
15083;DHT22;7640;53.116;6.878;2022-09-19T05:49:52;12.80;99.90
15083;DHT22;7640;53.116;6.878;2022-09-19T05:52:20;12.80;99.90
15083;DHT22;7640;53.116;6.878;2022-09-19T05:55:08;12.80;99.90
15083;DHT22;7640;53.116;6.878;2022-09-19T05:57:36;12.80;99.90
15083;DHT22;7640;53.116;6.878;2022-09-19T06:00:05;12.80;99.90
15083;DHT22;7640;53.116;6.878;2022-09-19T06:02:34;12.80;99.90
15083;DHT22;7640;53.116;6.878;2022-09-19T06:05:03;12.80;99.90
15083;DHT22;7640;53.116;6.878;2022-09-19T06:07:31;12.90;99.90
15083;DHT22;7640;53.116;6.878;2022-09-19T06:09:59;12.90;99.90
15083;DHT22;7640;53.116;6.878;2022-09-19T06:12:29;12.90;99.90
15083;DHT22;7640;53.116;6.878;2022-09-19T06:14:57;12.90;99.90
15083;DHT22;7640;53.116;6.878;2022-09-19T06:17:26;12.90;99.90
15083;DHT22;7640;53.116;6.878;2022-09-19T06:19:54;12.90;99.90
15083;DHT22;7640;53.116;6.878;2022-09-19T06:22:23;12.90;99.90
15083;DHT22;7640;53.116;6.878;2022-09-19T06:24:51;12.90;99.90
15083;DHT22;7640;53.116;6.878;2022-09-19T06:27:19;13.00;99.90
15083;DHT22;7640;53.116;6.878;2022-09-19T06:29:48;13.00;99.90
15083;DHT22;7640;53.116;6.878;2022-09-19T06:32:17;13.00;99.90
15083;DHT22;7640;53.116;6.878;2022-09-19T06:34:45;13.00;99.90
15083;DHT22;7640;53.116;6.878;2022-09-19T06:37:24;13.10;99.90
15083;DHT22;7640;53.116;6.878;2022-09-19T06:39:52;13.10;99.90
15083;DHT22;7640;53.116;6.878;2022-09-19T06:42:20;13.10;99.90
15083;DHT22;7640;53.116;6.878;2022-09-19T06:44:55;13.20;99.90
15083;DHT22;7640;53.116;6.878;2022-09-19T06:47:23;13.20;99.90
15083;DHT22;7640;53.116;6.878;2022-09-19T06:49:51;13.20;99.90
15083;DHT22;7640;53.116;6.878;2022-09-19T06:52:20;13.30;99.90
15083;DHT22;7640;53.116;6.878;2022-09-19T06:54:48;13.40;99.90
15083;DHT22;7640;53.116;6.878;2022-09-19T06:57:16;13.40;99.90
15083;DHT22;7640;53.116;6.878;2022-09-19T06:59:44;13.50;99.90
15083;DHT22;7640;53.116;6.878;2022-09-19T07:02:13;13.50;99.90
15083;DHT22;7640;53.116;6.878;2022-09-19T07:04:42;13.60;99.90
15083;DHT22;7640;53.116;6.878;2022-09-19T07:07:10;13.50;99.90
15083;DHT22;7640;53.116;6.878;2022-09-19T07:09:38;13.50;99.90
15083;DHT22;7640;53.116;6.878;2022-09-19T07:12:08;13.50;99.90
15083;DHT22;7640;53.116;6.878;2022-09-19T07:14:36;13.50;99.90
15083;DHT22;7640;53.116;6.878;2022-09-19T07:17:06;13.50;99.90
15083;DHT22;7640;53.116;6.878;2022-09-19T07:19:35;13.50;99.90
15083;DHT22;7640;53.116;6.878;2022-09-19T07:22:03;13.50;99.90
15083;DHT22;7640;53.116;6.878;2022-09-19T07:24:32;13.50;99.90
15083;DHT22;7640;53.116;6.878;2022-09-19T07:27:00;13.50;99.90
15083;DHT22;7640;53.116;6.878;2022-09-19T07:29:28;13.50;99.90
15083;DHT22;7640;53.116;6.878;2022-09-19T07:31:56;13.30;99.90
15083;DHT22;7640;53.116;6.878;2022-09-19T07:34:25;13.60;99.90
15083;DHT22;7640;53.116;6.878;2022-09-19T07:36:55;13.70;99.90
15083;DHT22;7640;53.116;6.878;2022-09-19T07:39:23;13.70;99.90
15083;DHT22;7640;53.116;6.878;2022-09-19T07:41:51;13.80;99.90
15083;DHT22;7640;53.116;6.878;2022-09-19T07:44:20;13.90;99.90
15083;DHT22;7640;53.116;6.878;2022-09-19T07:46:50;14.00;99.90
15083;DHT22;7640;53.116;6.878;2022-09-19T07:49:32;14.00;99.90
15083;DHT22;7640;53.116;6.878;2022-09-19T07:52:01;14.10;99.90
15083;DHT22;7640;53.116;6.878;2022-09-19T07:54:30;14.10;99.90
15083;DHT22;7640;53.116;6.878;2022-09-19T07:56:58;14.20;99.90
15083;DHT22;7640;53.116;6.878;2022-09-19T07:59:26;14.30;99.90
15083;DHT22;7640;53.116;6.878;2022-09-19T08:01:54;14.50;99.90
15083;DHT22;7640;53.116;6.878;2022-09-19T08:04:23;14.50;99.90
15083;DHT22;7640;53.116;6.878;2022-09-19T08:06:51;14.50;99.90
15083;DHT22;7640;53.116;6.878;2022-09-19T08:09:21;14.60;99.90
15083;DHT22;7640;53.116;6.878;2022-09-19T08:11:49;14.70;99.90
15083;DHT22;7640;53.116;6.878;2022-09-19T08:14:17;14.70;99.90
15083;DHT22;7640;53.116;6.878;2022-09-19T08:16:46;14.80;99.90
15083;DHT22;7640;53.116;6.878;2022-09-19T08:19:14;14.80;99.90
15083;DHT22;7640;53.116;6.878;2022-09-19T08:21:42;14.80;99.90
15083;DHT22;7640;53.116;6.878;2022-09-19T08:24:10;14.90;99.90
15083;DHT22;7640;53.116;6.878;2022-09-19T08:26:39;14.90;99.90
15083;DHT22;7640;53.116;6.878;2022-09-19T08:29:09;14.90;99.90
15083;DHT22;7640;53.116;6.878;2022-09-19T08:31:37;15.00;99.90
15083;DHT22;7640;53.116;6.878;2022-09-19T08:34:05;15.00;99.90
15083;DHT22;7640;53.116;6.878;2022-09-19T08:36:35;15.00;99.90
15083;DHT22;7640;53.116;6.878;2022-09-19T08:39:03;15.10;99.90
15083;DHT22;7640;53.116;6.878;2022-09-19T08:41:54;15.20;99.90
15083;DHT22;7640;53.116;6.878;2022-09-19T08:44:44;15.30;99.90
15083;DHT22;7640;53.116;6.878;2022-09-19T08:47:22;15.30;99.90
15083;DHT22;7640;53.116;6.878;2022-09-19T08:49:54;15.40;99.90
15083;DHT22;7640;53.116;6.878;2022-09-19T08:52:32;15.50;99.90
15083;DHT22;7640;53.116;6.878;2022-09-19T08:55:06;15.60;99.90
15083;DHT22;7640;53.116;6.878;2022-09-19T08:57:48;15.70;99.90
15083;DHT22;7640;53.116;6.878;2022-09-19T09:00:20;15.90;99.90
15083;DHT22;7640;53.116;6.878;2022-09-19T09:02:55;16.10;99.90
15083;DHT22;7640;53.116;6.878;2022-09-19T09:05:39;16.30;99.90
15083;DHT22;7640;53.116;6.878;2022-09-19T09:08:20;16.30;99.90
15083;DHT22;7640;53.116;6.878;2022-09-19T09:11:09;16.40;99.90
15083;DHT22;7640;53.116;6.878;2022-09-19T09:13:56;16.40;99.90
15083;DHT22;7640;53.116;6.878;2022-09-19T09:16:39;16.30;99.90
15083;DHT22;7640;53.116;6.878;2022-09-19T09:19:30;16.20;99.90
15083;DHT22;7640;53.116;6.878;2022-09-19T09:22:11;16.20;99.90
15083;DHT22;7640;53.116;6.878;2022-09-19T09:24:47;16.30;99.90
15083;DHT22;7640;53.116;6.878;2022-09-19T09:27:22;16.40;99.90
15083;DHT22;7640;53.116;6.878;2022-09-19T09:29:55;16.60;99.90
15083;DHT22;7640;53.116;6.878;2022-09-19T09:32:27;16.80;99.90
15083;DHT22;7640;53.116;6.878;2022-09-19T09:35:01;16.90;99.90
15083;DHT22;7640;53.116;6.878;2022-09-19T09:37:39;16.90;99.90
15083;DHT22;7640;53.116;6.878;2022-09-19T09:40:16;16.90;99.90
15083;DHT22;7640;53.116;6.878;2022-09-19T09:43:13;16.90;99.90
15083;DHT22;7640;53.116;6.878;2022-09-19T09:45:50;17.00;99.90
15083;DHT22;7640;53.116;6.878;2022-09-19T09:48:21;17.10;99.90
15083;DHT22;7640;53.116;6.878;2022-09-19T09:51:05;17.10;99.90
15083;DHT22;7640;53.116;6.878;2022-09-19T09:54:00;17.20;99.90
15083;DHT22;7640;53.116;6.878;2022-09-19T09:56:58;17.20;99.90
15083;DHT22;7640;53.116;6.878;2022-09-19T09:59:34;17.20;99.90
15083;DHT22;7640;53.116;6.878;2022-09-19T10:02:29;17.40;99.90
15083;DHT22;7640;53.116;6.878;2022-09-19T10:05:28;17.60;99.90
15083;DHT22;7640;53.116;6.878;2022-09-19T10:08:10;17.60;99.90
15083;DHT22;7640;53.116;6.878;2022-09-19T10:10:45;17.40;99.90
15083;DHT22;7640;53.116;6.878;2022-09-19T10:13:22;17.30;99.90
15083;DHT22;7640;53.116;6.878;2022-09-19T10:15:57;17.10;99.90
15083;DHT22;7640;53.116;6.878;2022-09-19T10:18:39;17.00;99.90
15083;DHT22;7640;53.116;6.878;2022-09-19T10:21:10;17.00;99.90
15083;DHT22;7640;53.116;6.878;2022-09-19T10:23:41;16.90;99.90
15083;DHT22;7640;53.116;6.878;2022-09-19T10:26:13;16.80;99.90
15083;DHT22;7640;53.116;6.878;2022-09-19T10:28:50;16.60;99.90
15083;DHT22;7640;53.116;6.878;2022-09-19T10:31:23;16.50;99.90
15083;DHT22;7640;53.116;6.878;2022-09-19T10:33:54;16.40;99.90
15083;DHT22;7640;53.116;6.878;2022-09-19T10:36:24;16.50;99.90
15083;DHT22;7640;53.116;6.878;2022-09-19T10:39:08;16.60;99.90
15083;DHT22;7640;53.116;6.878;2022-09-19T10:41:41;16.70;99.90
15083;DHT22;7640;53.116;6.878;2022-09-19T10:44:17;16.90;99.90
15083;DHT22;7640;53.116;6.878;2022-09-19T10:46:49;16.90;99.90
15083;DHT22;7640;53.116;6.878;2022-09-19T10:49:22;17.00;99.90
15083;DHT22;7640;53.116;6.878;2022-09-19T10:51:53;17.20;99.90
15083;DHT22;7640;53.116;6.878;2022-09-19T10:54:30;17.30;99.90
15083;DHT22;7640;53.116;6.878;2022-09-19T10:57:03;17.40;99.90
15083;DHT22;7640;53.116;6.878;2022-09-19T10:59:34;17.60;99.90
15083;DHT22;7640;53.116;6.878;2022-09-19T11:02:17;17.50;99.90
15083;DHT22;7640;53.116;6.878;2022-09-19T11:04:54;17.40;99.90
15083;DHT22;7640;53.116;6.878;2022-09-19T11:07:27;17.20;99.90
15083;DHT22;7640;53.116;6.878;2022-09-19T11:09:58;17.00;99.90
15083;DHT22;7640;53.116;6.878;2022-09-19T11:12:28;16.90;99.90
15083;DHT22;7640;53.116;6.878;2022-09-19T11:14:59;16.80;99.90
15083;DHT22;7640;53.116;6.878;2022-09-19T11:17:49;16.70;99.90
15083;DHT22;7640;53.116;6.878;2022-09-19T11:20:40;16.60;99.90
15083;DHT22;7640;53.116;6.878;2022-09-19T11:23:28;16.50;99.90
15083;DHT22;7640;53.116;6.878;2022-09-19T11:26:13;16.70;99.90
15083;DHT22;7640;53.116;6.878;2022-09-19T11:28:56;16.70;99.90
15083;DHT22;7640;53.116;6.878;2022-09-19T11:31:39;16.50;99.90
15083;DHT22;7640;53.116;6.878;2022-09-19T11:34:35;16.40;99.90
15083;DHT22;7640;53.116;6.878;2022-09-19T11:37:41;16.40;99.90
15083;DHT22;7640;53.116;6.878;2022-09-19T11:40:26;16.50;99.90
15083;DHT22;7640;53.116;6.878;2022-09-19T11:43:08;16.80;99.90
15083;DHT22;7640;53.116;6.878;2022-09-19T11:45:53;17.20;99.90
15083;DHT22;7640;53.116;6.878;2022-09-19T11:48:54;17.50;99.90
15083;DHT22;7640;53.116;6.878;2022-09-19T11:51:36;17.70;99.90
15083;DHT22;7640;53.116;6.878;2022-09-19T11:54:25;17.60;99.90
15083;DHT22;7640;53.116;6.878;2022-09-19T11:57:20;17.50;99.90
15083;DHT22;7640;53.116;6.878;2022-09-19T12:00:04;17.60;99.90
15083;DHT22;7640;53.116;6.878;2022-09-19T12:03:03;17.80;99.90
15083;DHT22;7640;53.116;6.878;2022-09-19T12:05:50;17.90;99.90
15083;DHT22;7640;53.116;6.878;2022-09-19T12:08:38;18.00;99.90
15083;DHT22;7640;53.116;6.878;2022-09-19T12:11:17;18.20;99.90
15083;DHT22;7640;53.116;6.878;2022-09-19T12:13:48;18.50;99.90
15083;DHT22;7640;53.116;6.878;2022-09-19T12:16:37;18.80;99.90
15083;DHT22;7640;53.116;6.878;2022-09-19T12:19:10;18.90;99.90
15083;DHT22;7640;53.116;6.878;2022-09-19T12:21:42;19.00;99.90
15083;DHT22;7640;53.116;6.878;2022-09-19T12:24:17;19.10;99.90
15083;DHT22;7640;53.116;6.878;2022-09-19T12:27:13;19.40;99.90
15083;DHT22;7640;53.116;6.878;2022-09-19T12:29:46;19.70;99.90
15083;DHT22;7640;53.116;6.878;2022-09-19T12:32:22;19.90;99.90
15083;DHT22;7640;53.116;6.878;2022-09-19T12:34:58;20.10;99.90
15083;DHT22;7640;53.116;6.878;2022-09-19T12:37:37;20.10;99.90
15083;DHT22;7640;53.116;6.878;2022-09-19T12:40:20;19.90;99.90
15083;DHT22;7640;53.116;6.878;2022-09-19T12:43:02;19.60;99.90
15083;DHT22;7640;53.116;6.878;2022-09-19T12:45:43;19.20;99.90
15083;DHT22;7640;53.116;6.878;2022-09-19T12:48:23;18.90;99.90
15083;DHT22;7640;53.116;6.878;2022-09-19T12:50:56;18.70;99.90
15083;DHT22;7640;53.116;6.878;2022-09-19T12:53:31;18.50;99.90
15083;DHT22;7640;53.116;6.878;2022-09-19T12:56:04;18.40;99.90
15083;DHT22;7640;53.116;6.878;2022-09-19T12:58:47;18.40;99.90
15083;DHT22;7640;53.116;6.878;2022-09-19T13:01:27;18.70;99.90
15083;DHT22;7640;53.116;6.878;2022-09-19T13:04:11;19.10;99.90
15083;DHT22;7640;53.116;6.878;2022-09-19T13:06:53;19.50;99.90
15083;DHT22;7640;53.116;6.878;2022-09-19T13:09:27;19.90;99.90
15083;DHT22;7640;53.116;6.878;2022-09-19T13:12:05;20.20;99.90
15083;DHT22;7640;53.116;6.878;2022-09-19T13:14:45;20.30;99.90
15083;DHT22;7640;53.116;6.878;2022-09-19T13:17:15;20.20;99.90
15083;DHT22;7640;53.116;6.878;2022-09-19T13:20:16;20.20;99.90
15083;DHT22;7640;53.116;6.878;2022-09-19T13:23:04;20.40;99.90
15083;DHT22;7640;53.116;6.878;2022-09-19T13:25:46;20.60;99.90
15083;DHT22;7640;53.116;6.878;2022-09-19T13:28:28;20.70;99.90
15083;DHT22;7640;53.116;6.878;2022-09-19T13:31:11;20.80;99.90
15083;DHT22;7640;53.116;6.878;2022-09-19T13:33:46;21.20;99.90
15083;DHT22;7640;53.116;6.878;2022-09-19T13:36:38;21.20;99.90
15083;DHT22;7640;53.116;6.878;2022-09-19T13:39:42;21.20;99.90
15083;DHT22;7640;53.116;6.878;2022-09-19T13:42:18;20.70;99.90
15083;DHT22;7640;53.116;6.878;2022-09-19T13:44:57;20.30;99.90
15083;DHT22;7640;53.116;6.878;2022-09-19T13:47:30;20.20;99.90
15083;DHT22;7640;53.116;6.878;2022-09-19T13:50:05;20.20;99.90
15083;DHT22;7640;53.116;6.878;2022-09-19T13:52:42;20.40;99.90
15083;DHT22;7640;53.116;6.878;2022-09-19T13:55:28;20.60;99.90
15083;DHT22;7640;53.116;6.878;2022-09-19T13:58:15;20.90;99.90
15083;DHT22;7640;53.116;6.878;2022-09-19T14:00:55;21.20;99.90
15083;DHT22;7640;53.116;6.878;2022-09-19T14:03:39;21.60;99.90
15083;DHT22;7640;53.116;6.878;2022-09-19T14:06:18;21.90;99.90
15083;DHT22;7640;53.116;6.878;2022-09-19T14:09:13;21.90;99.90
15083;DHT22;7640;53.116;6.878;2022-09-19T14:16:03;21.00;99.90
15083;DHT22;7640;53.116;6.878;2022-09-19T14:18:51;20.60;99.90
15083;DHT22;7640;53.116;6.878;2022-09-19T14:21:54;20.50;99.90
15083;DHT22;7640;53.116;6.878;2022-09-19T14:24:36;20.30;99.90
15083;DHT22;7640;53.116;6.878;2022-09-19T14:27:19;19.90;99.90
15083;DHT22;7640;53.116;6.878;2022-09-19T14:30:18;19.00;99.90
15083;DHT22;7640;53.116;6.878;2022-09-19T14:32:59;18.50;99.90
15083;DHT22;7640;53.116;6.878;2022-09-19T14:35:45;17.80;99.90
15083;DHT22;7640;53.116;6.878;2022-09-19T14:38:45;17.10;99.90
15083;DHT22;7640;53.116;6.878;2022-09-19T14:41:26;16.70;99.90
15083;DHT22;7640;53.116;6.878;2022-09-19T14:44:47;16.40;99.90
15083;DHT22;7640;53.116;6.878;2022-09-19T14:47:33;16.50;99.90
15083;DHT22;7640;53.116;6.878;2022-09-19T14:50:05;16.90;99.90
15083;DHT22;7640;53.116;6.878;2022-09-19T14:52:52;17.30;99.90
15083;DHT22;7640;53.116;6.878;2022-09-19T14:55:29;17.90;99.90
15083;DHT22;7640;53.116;6.878;2022-09-19T14:58:03;18.30;99.90
15083;DHT22;7640;53.116;6.878;2022-09-19T15:00:32;19.10;99.90
15083;DHT22;7640;53.116;6.878;2022-09-19T15:03:08;19.50;99.90
15083;DHT22;7640;53.116;6.878;2022-09-19T15:05:38;19.70;99.90
15083;DHT22;7640;53.116;6.878;2022-09-19T15:08:14;19.60;99.90
15083;DHT22;7640;53.116;6.878;2022-09-19T15:10:57;19.70;99.90
15083;DHT22;7640;53.116;6.878;2022-09-19T15:13:27;19.90;99.90
15083;DHT22;7640;53.116;6.878;2022-09-19T15:16:00;20.30;99.90
15083;DHT22;7640;53.116;6.878;2022-09-19T15:18:36;20.70;99.90
15083;DHT22;7640;53.116;6.878;2022-09-19T15:21:08;21.10;99.90
15083;DHT22;7640;53.116;6.878;2022-09-19T15:23:44;21.50;99.90
15083;DHT22;7640;53.116;6.878;2022-09-19T15:26:15;21.70;99.90
15083;DHT22;7640;53.116;6.878;2022-09-19T15:28:54;21.80;99.90
15083;DHT22;7640;53.116;6.878;2022-09-19T15:31:25;21.80;99.90
15083;DHT22;7640;53.116;6.878;2022-09-19T15:34:00;21.60;99.90
15083;DHT22;7640;53.116;6.878;2022-09-19T15:36:31;21.40;99.90
15083;DHT22;7640;53.116;6.878;2022-09-19T15:39:04;21.40;99.90
15083;DHT22;7640;53.116;6.878;2022-09-19T15:41:34;21.60;99.90
15083;DHT22;7640;53.116;6.878;2022-09-19T15:44:02;21.80;99.90
15083;DHT22;7640;53.116;6.878;2022-09-19T15:46:42;22.00;99.90
15083;DHT22;7640;53.116;6.878;2022-09-19T15:49:26;21.80;99.90
15083;DHT22;7640;53.116;6.878;2022-09-19T15:51:58;21.50;99.90
15083;DHT22;7640;53.116;6.878;2022-09-19T15:54:29;21.00;99.90
15083;DHT22;7640;53.116;6.878;2022-09-19T15:56:59;20.60;99.90
15083;DHT22;7640;53.116;6.878;2022-09-19T15:59:35;20.20;99.90
15083;DHT22;7640;53.116;6.878;2022-09-19T16:02:05;20.20;99.90
15083;DHT22;7640;53.116;6.878;2022-09-19T16:04:35;20.10;99.90
15083;DHT22;7640;53.116;6.878;2022-09-19T16:07:04;20.00;99.90
15083;DHT22;7640;53.116;6.878;2022-09-19T16:10:10;19.80;99.90
15083;DHT22;7640;53.116;6.878;2022-09-19T16:12:44;19.50;99.90
15083;DHT22;7640;53.116;6.878;2022-09-19T16:15:28;19.40;99.90
15083;DHT22;7640;53.116;6.878;2022-09-19T16:18:17;19.30;99.90
15083;DHT22;7640;53.116;6.878;2022-09-19T16:21:09;19.10;99.90
15083;DHT22;7640;53.116;6.878;2022-09-19T16:23:42;19.00;99.90
15083;DHT22;7640;53.116;6.878;2022-09-19T16:26:14;18.80;99.90
15083;DHT22;7640;53.116;6.878;2022-09-19T16:28:49;18.90;99.90
15083;DHT22;7640;53.116;6.878;2022-09-19T16:31:24;19.00;99.90
15083;DHT22;7640;53.116;6.878;2022-09-19T16:33:56;19.30;99.90
15083;DHT22;7640;53.116;6.878;2022-09-19T16:36:29;19.60;99.90
15083;DHT22;7640;53.116;6.878;2022-09-19T16:39:16;20.10;99.90
15083;DHT22;7640;53.116;6.878;2022-09-19T16:41:59;20.80;99.90
15083;DHT22;7640;53.116;6.878;2022-09-19T16:44:35;21.20;99.90